Time;durP1;ratioP1;P1;durP2;ratioP2;P2;SDS_P1;SDS_P2;PMS_P1;PMS_P2;Temp;Humidity;BMP_temperature;BMP_pressure;BME280_temperature;BME280_humidity;BME280_pressure;Samples;Min_cycle;Max_cycle;Signal;HPM_P1;HPM_P2
2023/08/21 06:04:45;;;;;;;9.52;4.13;;;;;;;;;;5833026;23;20053;-82
2023/08/21 06:07:11;;;;;;;13.25;4.57;;;;;;;;;;4968153;28;20043;-81
2023/08/21 06:09:37;;;;;;;8.38;4.28;;;;;;;;;;4973815;28;20030;-82
2023/08/21 06:12:04;;;;;;;8.18;4.10;;;;;;;;;;4973824;28;20041;-82
2023/08/21 06:14:30;;;;;;;7.43;4.60;;;;;;;;;;4964308;28;20033;-82
2023/08/21 06:17:01;;;;;;;8.38;4.18;;;;;;;;;;4972849;28;20027;-82
2023/08/21 06:19:27;;;;;;;11.82;4.40;;;;;;;;;;4974135;28;20025;-81
2023/08/21 06:21:54;;;;;;;9.07;4.63;;;;;;;;;;4974010;28;20034;-83
2023/08/21 06:24:20;;;;;;;10.98;4.82;;;;;;;;;;4973827;28;20031;-82
2023/08/21 06:26:47;;;;;;;7.47;4.65;;;;;;;;;;4974050;28;20401;-81
2023/08/21 06:29:13;;;;;;;13.02;4.68;;;;;;;;;;4974380;28;20037;-83
2023/08/21 06:31:39;;;;;;;6.30;4.03;;;;;;;;;;4974186;28;20033;-83
2023/08/21 06:34:06;;;;;;;9.10;4.57;;;;;;;;;;4973534;28;20026;-82
2023/08/21 06:36:32;;;;;;;9.45;4.38;;;;;;;;;;4973518;28;20383;-82
2023/08/21 06:38:58;;;;;;;9.95;5.10;;;;;;;;;;4973840;28;20041;-83
2023/08/21 06:41:25;;;;;;;8.23;4.25;;;;;;;;;;4972034;28;20019;-83
2023/08/21 06:43:51;;;;;;;8.65;3.92;;;;;;;;;;4972556;28;20030;-83
2023/08/21 06:46:18;;;;;;;12.85;4.95;;;;;;;;;;4966648;28;20031;-82
2023/08/21 06:48:44;;;;;;;7.88;4.45;;;;;;;;;;4970791;28;20038;-83
2023/08/21 06:51:10;;;;;;;10.18;4.75;;;;;;;;;;4970800;28;20084;-81
2023/08/21 06:53:37;;;;;;;13.73;4.82;;;;;;;;;;4962213;28;20031;-83
2023/08/21 06:56:03;;;;;;;9.52;5.18;;;;;;;;;;4954170;28;20082;-83
2023/08/21 06:58:29;;;;;;;12.60;4.97;;;;;;;;;;4971964;28;20031;-83
2023/08/21 07:00:56;;;;;;;10.90;4.95;;;;;;;;;;4972748;28;20471;-83
2023/08/21 07:03:23;;;;;;;8.90;4.25;;;;;;;;;;4973140;28;20799;-82
2023/08/21 07:05:58;;;;;;;8.43;5.22;;;;;;;;;;4972225;28;20047;-83
2023/08/21 07:08:25;;;;;;;14.35;5.22;;;;;;;;;;4973113;28;20023;-83
2023/08/21 07:10:51;;;;;;;10.77;5.13;;;;;;;;;;4973181;28;20517;-83
2023/08/21 07:13:18;;;;;;;15.23;5.05;;;;;;;;;;4971962;28;20434;-84
2023/08/21 07:15:44;;;;;;;6.43;4.88;;;;;;;;;;4973165;28;20501;-84
2023/08/21 07:18:10;;;;;;;11.50;4.32;;;;;;;;;;4972656;28;20038;-84
2023/08/21 07:20:37;;;;;;;17.35;4.88;;;;;;;;;;4969098;28;20479;-84
2023/08/21 07:23:03;;;;;;;10.00;4.75;;;;;;;;;;4973074;28;20447;-84
2023/08/21 07:25:30;;;;;;;12.98;4.95;;;;;;;;;;4972731;28;20039;-84
2023/08/21 07:27:56;;;;;;;11.57;5.20;;;;;;;;;;4972494;28;20030;-84
2023/08/21 07:30:23;;;;;;;6.78;4.75;;;;;;;;;;4972910;28;20031;-84
2023/08/21 07:32:49;;;;;;;9.18;4.57;;;;;;;;;;4973304;28;20022;-84
2023/08/21 07:35:16;;;;;;;10.20;4.57;;;;;;;;;;4972727;28;20029;-85
2023/08/21 07:37:45;;;;;;;8.32;4.43;;;;;;;;;;4972767;28;20038;-83
2023/08/21 07:40:12;;;;;;;9.73;4.97;;;;;;;;;;4972724;28;20025;-84
2023/08/21 07:42:39;;;;;;;9.90;5.03;;;;;;;;;;4972295;28;20018;-84
2023/08/21 07:45:06;;;;;;;8.63;5.00;;;;;;;;;;4971860;28;20039;-84
2023/08/21 07:47:32;;;;;;;6.53;4.57;;;;;;;;;;4972654;28;20027;-84
2023/08/21 07:49:58;;;;;;;19.30;4.55;;;;;;;;;;4970203;28;20395;-84
2023/08/21 07:52:24;;;;;;;8.10;4.25;;;;;;;;;;4972895;28;20027;-67
2023/08/21 07:54:54;;;;;;;8.55;4.60;;;;;;;;;;4970064;28;20076;-67
2023/08/21 07:57:20;;;;;;;9.25;4.75;;;;;;;;;;4969323;28;20041;-67
2023/08/21 07:59:47;;;;;;;10.05;5.00;;;;;;;;;;4954867;28;20499;-67
2023/08/21 08:02:13;;;;;;;8.48;4.90;;;;;;;;;;4965453;28;20031;-67
2023/08/21 08:04:40;;;;;;;9.82;5.07;;;;;;;;;;4972435;28;20034;-67
2023/08/21 08:07:08;;;;;;;13.90;4.95;;;;;;;;;;4972331;28;20038;-67
2023/08/21 08:09:34;;;;;;;17.85;4.90;;;;;;;;;;4971066;28;20031;-67
2023/08/21 08:12:00;;;;;;;7.57;4.68;;;;;;;;;;4961186;28;20031;-67
2023/08/21 08:14:27;;;;;;;9.15;5.13;;;;;;;;;;4972384;28;20039;-67
2023/08/21 08:16:53;;;;;;;12.02;5.25;;;;;;;;;;4972669;28;20045;-67
2023/08/21 08:19:19;;;;;;;7.38;4.90;;;;;;;;;;4971638;28;20450;-67
2023/08/21 08:21:45;;;;;;;11.07;5.05;;;;;;;;;;4972899;28;20179;-67
2023/08/21 08:24:12;;;;;;;9.05;4.93;;;;;;;;;;4974212;28;20483;-67
2023/08/21 08:26:38;;;;;;;14.52;5.47;;;;;;;;;;4976361;28;20037;-67
2023/08/21 08:29:06;;;;;;;11.25;5.00;;;;;;;;;;4975877;28;20423;-67
2023/08/21 08:31:33;;;;;;;8.52;4.70;;;;;;;;;;4975488;28;20084;-66
2023/08/21 08:33:59;;;;;;;6.93;4.78;;;;;;;;;;4973134;28;20022;-66
2023/08/21 08:36:25;;;;;;;9.77;5.28;;;;;;;;;;4970024;28;20027;-67
2023/08/21 08:38:52;;;;;;;7.93;4.05;;;;;;;;;;4956501;28;20078;-67
2023/08/21 08:41:27;;;;;;;7.72;4.50;;;;;;;;;;4956819;29;20031;-67
2023/08/21 08:43:56;;;;;;;6.82;4.22;;;;;;;;;;4955828;29;20046;-67
2023/08/21 08:46:24;;;;;;;10.73;4.28;;;;;;;;;;4960261;28;20038;-67
2023/08/21 08:48:51;;;;;;;8.18;3.88;;;;;;;;;;4974843;28;20027;-67
2023/08/21 08:51:17;;;;;;;6.60;4.15;;;;;;;;;;4975772;28;20035;-67
2023/08/21 08:53:44;;;;;;;12.73;4.25;;;;;;;;;;4975746;28;20022;-67
2023/08/21 08:56:11;;;;;;;9.75;4.03;;;;;;;;;;4975713;28;20026;-67
2023/08/21 08:58:37;;;;;;;4.60;3.45;;;;;;;;;;4975770;28;20030;-66
2023/08/21 09:01:03;;;;;;;7.43;3.90;;;;;;;;;;4975190;28;20030;-66
2023/08/21 09:03:30;;;;;;;8.90;4.13;;;;;;;;;;4975252;28;20037;-65
2023/08/21 09:06:00;;;;;;;8.07;3.38;;;;;;;;;;4975171;28;20058;-68
2023/08/21 09:08:26;;;;;;;6.78;3.50;;;;;;;;;;4975418;28;20037;-67
2023/08/21 09:10:54;;;;;;;11.07;3.75;;;;;;;;;;4975678;28;20034;-67
2023/08/21 09:13:20;;;;;;;8.07;3.72;;;;;;;;;;4975105;28;20022;-67
2023/08/21 09:15:48;;;;;;;6.07;3.45;;;;;;;;;;4974976;28;20450;-67
2023/08/21 09:18:17;;;;;;;8.55;3.00;;;;;;;;;;4975008;28;20030;-67
2023/08/21 09:20:44;;;;;;;9.87;4.07;;;;;;;;;;4974880;28;20041;-67
2023/08/21 09:23:19;;;;;;;8.27;3.92;;;;;;;;;;4967355;28;20024;-67
2023/08/21 09:25:47;;;;;;;10.73;3.08;;;;;;;;;;4956745;28;20031;-67
2023/08/21 09:28:14;;;;;;;6.75;3.28;;;;;;;;;;4974912;28;20031;-67
2023/08/21 09:30:50;;;;;;;6.40;2.92;;;;;;;;;;4974802;28;20088;-67
2023/08/21 09:33:25;;;;;;;6.47;2.92;;;;;;;;;;4974817;28;20402;-67
2023/08/21 09:35:52;;;;;;;8.00;2.90;;;;;;;;;;4973765;28;20407;-68
2023/08/21 09:38:19;;;;;;;5.18;3.22;;;;;;;;;;4974655;28;20027;-67
2023/08/21 09:40:52;;;;;;;5.20;3.15;;;;;;;;;;4974646;28;20030;-67
2023/08/21 09:43:19;;;;;;;8.55;3.00;;;;;;;;;;4974307;28;20022;-67
2023/08/21 09:45:49;;;;;;;5.22;3.00;;;;;;;;;;4974384;28;20483;-68
2023/08/21 09:48:15;;;;;;;7.00;3.40;;;;;;;;;;4974317;28;20404;-67
2023/08/21 09:50:42;;;;;;;5.55;3.05;;;;;;;;;;4973926;28;20041;-68
2023/08/21 09:53:09;;;;;;;7.75;2.90;;;;;;;;;;4969628;28;20026;-67
2023/08/21 09:55:36;;;;;;;7.40;2.90;;;;;;;;;;4974600;28;20030;-67
2023/08/21 09:58:02;;;;;;;9.45;2.95;;;;;;;;;;4974764;28;20027;-68
2023/08/21 10:00:33;;;;;;;7.65;2.95;;;;;;;;;;4972791;28;20023;-67
2023/08/21 10:03:02;;;;;;;4.90;2.90;;;;;;;;;;4974004;28;20027;-67
2023/08/21 10:05:28;;;;;;;6.93;2.78;;;;;;;;;;4974024;28;20050;-67
2023/08/21 10:07:56;;;;;;;6.25;3.13;;;;;;;;;;4974917;28;20027;-67
2023/08/21 10:10:22;;;;;;;6.97;2.67;;;;;;;;;;4974709;28;20027;-67
2023/08/21 10:12:49;;;;;;;10.15;2.95;;;;;;;;;;4974533;28;20100;-68
2023/08/21 10:15:16;;;;;;;5.93;2.67;;;;;;;;;;4973946;28;20110;-67
2023/08/21 10:17:43;;;;;;;9.75;3.05;;;;;;;;;;4974313;28;20026;-67
2023/08/21 10:20:10;;;;;;;6.35;2.97;;;;;;;;;;4972881;28;20080;-67
2023/08/21 10:22:55;;;;;;;6.45;2.63;;;;;;;;;;4974361;28;20033;-67
2023/08/21 10:25:23;;;;;;;14.75;3.53;;;;;;;;;;4974011;28;20039;-68
2023/08/21 10:27:54;;;;;;;6.35;2.60;;;;;;;;;;4974094;28;20049;-67
2023/08/21 10:30:21;;;;;;;10.20;2.90;;;;;;;;;;4974173;28;20033;-67
2023/08/21 10:32:48;;;;;;;12.52;2.90;;;;;;;;;;4974102;28;20027;-67
2023/08/21 10:35:16;;;;;;;5.32;2.80;;;;;;;;;;4974417;28;20022;-67
2023/08/21 10:38:01;;;;;;;8.73;2.80;;;;;;;;;;4974135;28;20435;-68
2023/08/21 10:40:28;;;;;;;5.40;2.58;;;;;;;;;;4974345;28;20053;-67
2023/08/21 10:42:54;;;;;;;5.90;2.40;;;;;;;;;;4973863;28;20652;-67
2023/08/21 10:45:20;;;;;;;6.53;2.97;;;;;;;;;;4974042;28;20115;-67
2023/08/21 10:47:49;;;;;;;8.55;2.58;;;;;;;;;;4973655;28;20479;-68
2023/08/21 10:50:15;;;;;;;4.80;2.60;;;;;;;;;;4973779;28;20035;-67
2023/08/21 10:52:44;;;;;;;4.43;2.42;;;;;;;;;;4974150;28;20019;-67
2023/08/21 10:55:12;;;;;;;10.57;2.50;;;;;;;;;;4974111;28;20045;-67
2023/08/21 10:57:41;;;;;;;8.93;2.83;;;;;;;;;;4973346;28;20033;-68
2023/08/21 11:00:13;;;;;;;2.47;2.17;;;;;;;;;;4973946;28;20077;-67
2023/08/21 11:02:41;;;;;;;5.13;2.25;;;;;;;;;;4973701;28;20026;-67
2023/08/21 11:05:09;;;;;;;3.00;2.00;;;;;;;;;;4973827;28;20042;-68
2023/08/21 11:07:45;;;;;;;5.85;2.42;;;;;;;;;;4973334;28;20641;-68
2023/08/21 11:10:16;;;;;;;12.35;2.50;;;;;;;;;;4973727;28;20025;-68
2023/08/21 11:12:53;;;;;;;7.60;2.95;;;;;;;;;;4973585;28;20023;-68
2023/08/21 11:15:20;;;;;;;6.30;2.63;;;;;;;;;;4973466;28;20037;-68
2023/08/21 11:17:56;;;;;;;5.20;2.40;;;;;;;;;;4973660;28;20496;-67
2023/08/21 11:20:23;;;;;;;7.97;2.67;;;;;;;;;;4973490;28;20033;-68
2023/08/21 11:22:49;;;;;;;9.60;2.63;;;;;;;;;;4973515;28;20026;-67
2023/08/21 11:25:16;;;;;;;9.77;2.40;;;;;;;;;;4973373;28;20061;-68
2023/08/21 11:27:42;;;;;;;4.47;2.63;;;;;;;;;;4973041;28;20484;-67
2023/08/21 11:30:11;;;;;;;4.93;2.20;;;;;;;;;;4973349;28;20034;-67
2023/08/21 11:32:38;;;;;;;4.50;2.20;;;;;;;;;;4972375;28;20047;-68
2023/08/21 11:35:04;;;;;;;4.70;2.50;;;;;;;;;;4973282;28;20027;-67
2023/08/21 11:37:30;;;;;;;4.40;2.47;;;;;;;;;;4970153;28;20061;-66
2023/08/21 11:39:58;;;;;;;4.40;2.53;;;;;;;;;;4972103;28;20031;-67
2023/08/21 11:42:31;;;;;;;4.03;2.40;;;;;;;;;;4972483;28;20470;-67
2023/08/21 11:44:57;;;;;;;6.05;2.00;;;;;;;;;;4971851;28;20039;-67
2023/08/21 11:47:24;;;;;;;5.22;2.60;;;;;;;;;;4972747;28;20034;-67
2023/08/21 11:49:51;;;;;;;4.47;2.45;;;;;;;;;;4973225;28;20041;-67
2023/08/21 11:52:22;;;;;;;6.38;2.60;;;;;;;;;;4973209;28;20027;-68
2023/08/21 11:54:49;;;;;;;7.90;2.40;;;;;;;;;;4972503;28;20027;-68
2023/08/21 11:57:15;;;;;;;4.80;2.60;;;;;;;;;;4971231;28;20566;-67
2023/08/21 11:59:42;;;;;;;4.53;2.10;;;;;;;;;;4975328;28;20023;-68
2023/08/21 12:02:10;;;;;;;8.45;2.35;;;;;;;;;;4976721;28;20487;-68
2023/08/21 12:04:36;;;;;;;4.53;2.70;;;;;;;;;;4976504;28;20034;-68
2023/08/21 12:07:03;;;;;;;5.18;2.30;;;;;;;;;;4976412;28;20039;-68
2023/08/21 12:09:29;;;;;;;3.17;2.00;;;;;;;;;;4976496;28;20031;-68
2023/08/21 12:11:55;;;;;;;5.50;2.40;;;;;;;;;;4974936;28;20025;-67
2023/08/21 12:14:22;;;;;;;6.53;2.60;;;;;;;;;;4976574;28;20035;-67
2023/08/21 12:16:49;;;;;;;3.95;2.22;;;;;;;;;;4976351;28;20033;-68
2023/08/21 12:19:15;;;;;;;4.43;2.72;;;;;;;;;;4976143;28;20056;-68
2023/08/21 12:21:41;;;;;;;9.75;2.65;;;;;;;;;;4974003;28;20047;-68
2023/08/21 12:24:08;;;;;;;6.32;2.35;;;;;;;;;;4974874;28;20023;-68
2023/08/21 12:26:34;;;;;;;7.07;2.63;;;;;;;;;;4968068;28;20402;-68
2023/08/21 12:29:02;;;;;;;9.57;2.30;;;;;;;;;;4960587;28;20038;-68
2023/08/21 12:31:29;;;;;;;6.57;2.13;;;;;;;;;;4956883;29;20031;-68
2023/08/21 12:33:55;;;;;;;6.10;2.53;;;;;;;;;;4958570;28;20395;-68
2023/08/21 12:36:21;;;;;;;3.75;2.22;;;;;;;;;;4976322;28;20023;-68
2023/08/21 12:38:48;;;;;;;4.63;2.08;;;;;;;;;;4975129;28;20019;-68
2023/08/21 12:41:14;;;;;;;5.65;2.17;;;;;;;;;;4975588;28;20035;-67
2023/08/21 12:43:40;;;;;;;8.07;2.30;;;;;;;;;;4975863;28;20037;-68
2023/08/21 12:46:07;;;;;;;5.03;2.20;;;;;;;;;;4974579;28;20045;-68
2023/08/21 12:48:33;;;;;;;5.10;2.38;;;;;;;;;;4974697;28;20434;-68
2023/08/21 12:50:59;;;;;;;3.83;1.90;;;;;;;;;;4975106;28;20026;-68
2023/08/21 12:53:26;;;;;;;10.68;2.30;;;;;;;;;;4975388;28;20053;-68
2023/08/21 12:55:52;;;;;;;3.30;2.05;;;;;;;;;;4975866;28;20026;-67
2023/08/21 12:58:18;;;;;;;3.75;2.10;;;;;;;;;;4975435;28;20438;-68
2023/08/21 13:00:45;;;;;;;8.18;1.80;;;;;;;;;;4974962;28;20027;-68
2023/08/21 13:03:12;;;;;;;6.40;1.90;;;;;;;;;;4975854;28;20022;-67
2023/08/21 13:05:38;;;;;;;4.53;1.70;;;;;;;;;;4975147;28;20458;-68
2023/08/21 13:08:04;;;;;;;3.60;1.92;;;;;;;;;;4974186;28;20027;-68
2023/08/21 13:10:31;;;;;;;7.88;2.30;;;;;;;;;;4965789;28;20025;-67
2023/08/21 13:12:57;;;;;;;4.35;2.25;;;;;;;;;;4955923;28;20108;-68
2023/08/21 13:15:23;;;;;;;5.15;2.05;;;;;;;;;;4966037;28;20031;-68
2023/08/21 13:17:50;;;;;;;13.65;2.30;;;;;;;;;;4975332;28;20499;-68
2023/08/21 13:20:16;;;;;;;4.68;2.00;;;;;;;;;;4974800;28;20037;-68
2023/08/21 13:22:50;;;;;;;3.80;2.00;;;;;;;;;;4974849;28;20427;-68
2023/08/21 13:25:19;;;;;;;6.10;1.92;;;;;;;;;;4974949;28;20045;-68
2023/08/21 13:27:46;;;;;;;8.57;2.25;;;;;;;;;;4975196;28;20041;-68
2023/08/21 13:30:13;;;;;;;4.25;1.85;;;;;;;;;;4975289;28;20033;-67
2023/08/21 13:32:39;;;;;;;5.80;2.20;;;;;;;;;;4973699;28;20022;-68
2023/08/21 13:35:09;;;;;;;6.20;2.00;;;;;;;;;;4974370;28;20094;-68
2023/08/21 13:37:35;;;;;;;8.45;2.70;;;;;;;;;;4973869;28;20030;-68
2023/08/21 13:40:09;;;;;;;4.32;2.10;;;;;;;;;;4974886;28;20037;-68
2023/08/21 13:42:37;;;;;;;3.83;2.08;;;;;;;;;;4974942;28;20084;-68
2023/08/21 13:45:04;;;;;;;7.53;2.22;;;;;;;;;;4974639;28;20035;-68
2023/08/21 13:47:31;;;;;;;3.92;2.10;;;;;;;;;;4974854;28;20031;-68
2023/08/21 13:49:57;;;;;;;7.03;2.05;;;;;;;;;;4975160;28;20019;-69
2023/08/21 13:52:23;;;;;;;17.67;2.70;;;;;;;;;;4972811;28;20023;-68
2023/08/21 13:54:49;;;;;;;4.43;2.10;;;;;;;;;;4974378;28;20039;-68
2023/08/21 13:57:16;;;;;;;3.60;2.08;;;;;;;;;;4973911;28;20024;-68
2023/08/21 13:59:42;;;;;;;5.28;2.03;;;;;;;;;;4972404;28;20034;-69
2023/08/21 14:02:09;;;;;;;4.13;1.80;;;;;;;;;;4974414;28;20023;-68
2023/08/21 14:04:35;;;;;;;6.35;2.08;;;;;;;;;;4974185;28;20027;-68
2023/08/21 14:07:01;;;;;;;4.28;2.08;;;;;;;;;;4973439;28;20392;-68
2023/08/21 14:09:28;;;;;;;4.88;2.00;;;;;;;;;;4974505;28;20101;-68
2023/08/21 14:11:54;;;;;;;6.95;1.90;;;;;;;;;;4974764;28;20033;-68
2023/08/21 14:14:20;;;;;;;6.40;2.00;;;;;;;;;;4974108;28;20023;-68
2023/08/21 14:16:46;;;;;;;6.07;2.13;;;;;;;;;;4973895;28;20019;-68
2023/08/21 14:19:13;;;;;;;6.95;2.20;;;;;;;;;;4974316;28;20491;-68
2023/08/21 14:21:39;;;;;;;4.47;1.83;;;;;;;;;;4973139;28;20503;-69
2023/08/21 14:24:07;;;;;;;4.88;1.85;;;;;;;;;;4974428;28;20031;-68
2023/08/21 14:26:33;;;;;;;5.75;2.17;;;;;;;;;;4973916;28;20069;-68
2023/08/21 14:29:00;;;;;;;5.20;1.90;;;;;;;;;;4973876;28;20364;-68
2023/08/21 14:31:27;;;;;;;5.00;2.10;;;;;;;;;;4974217;28;20031;-69
2023/08/21 14:33:53;;;;;;;4.25;1.70;;;;;;;;;;4972629;28;20015;-68
2023/08/21 14:36:20;;;;;;;5.50;1.98;;;;;;;;;;4973317;28;20031;-68
2023/08/21 14:38:46;;;;;;;2.55;1.98;;;;;;;;;;4973687;28;20538;-68
2023/08/21 14:41:12;;;;;;;4.68;1.95;;;;;;;;;;4974244;28;20015;-68
2023/08/21 14:43:38;;;;;;;5.20;2.28;;;;;;;;;;4973615;28;20069;-68
2023/08/21 14:46:05;;;;;;;2.92;1.80;;;;;;;;;;4973709;28;20034;-68
2023/08/21 14:48:31;;;;;;;13.18;2.20;;;;;;;;;;4973942;28;20391;-68
2023/08/21 14:50:57;;;;;;;2.80;1.55;;;;;;;;;;4973371;28;20033;-68
2023/08/21 14:53:24;;;;;;;6.05;2.00;;;;;;;;;;4973245;28;20503;-68
2023/08/21 14:55:50;;;;;;;7.88;2.05;;;;;;;;;;4973850;28;20035;-67
2023/08/21 14:58:17;;;;;;;4.05;1.80;;;;;;;;;;4972988;28;20492;-68
2023/08/21 15:00:43;;;;;;;4.07;1.75;;;;;;;;;;4969601;28;20023;-67
2023/08/21 15:03:09;;;;;;;4.78;1.95;;;;;;;;;;4971829;28;20492;-67
2023/08/21 15:05:36;;;;;;;12.15;1.90;;;;;;;;;;4967023;28;20045;-68
2023/08/21 15:08:02;;;;;;;3.22;1.77;;;;;;;;;;4973012;28;20488;-68
2023/08/21 15:10:29;;;;;;;5.28;1.65;;;;;;;;;;4973185;28;20023;-68
2023/08/21 15:12:55;;;;;;;2.67;1.73;;;;;;;;;;4971930;28;20049;-67
2023/08/21 15:15:21;;;;;;;2.92;1.63;;;;;;;;;;4971697;28;20088;-67
2023/08/21 15:17:48;;;;;;;4.65;1.70;;;;;;;;;;4972912;28;20039;-68
2023/08/21 15:20:15;;;;;;;3.22;1.75;;;;;;;;;;4973423;28;20025;-68
2023/08/21 15:22:42;;;;;;;3.53;1.80;;;;;;;;;;4972031;28;20045;-68
2023/08/21 15:25:09;;;;;;;2.83;1.73;;;;;;;;;;4972939;28;20034;-68
2023/08/21 15:27:36;;;;;;;2.38;1.60;;;;;;;;;;4973121;28;20038;-68
2023/08/21 15:30:02;;;;;;;4.78;1.70;;;;;;;;;;4973238;28;20026;-68
2023/08/21 15:32:29;;;;;;;2.53;1.63;;;;;;;;;;4972715;28;20033;-67
2023/08/21 15:34:55;;;;;;;5.28;1.58;;;;;;;;;;4976939;28;20541;-67
2023/08/21 15:37:21;;;;;;;2.20;1.60;;;;;;;;;;4977696;28;20018;-68
2023/08/21 15:39:47;;;;;;;5.15;1.88;;;;;;;;;;4976548;28;20039;-68
2023/08/21 15:42:14;;;;;;;7.35;1.95;;;;;;;;;;4976521;28;20027;-68
2023/08/21 15:44:40;;;;;;;3.47;1.98;;;;;;;;;;4977497;28;20035;-66
2023/08/21 15:47:07;;;;;;;3.35;2.15;;;;;;;;;;4977166;28;20049;-68
2023/08/21 15:49:33;;;;;;;4.93;1.70;;;;;;;;;;4977331;28;20324;-67
2023/08/21 15:51:59;;;;;;;4.70;1.85;;;;;;;;;;4977376;28;20033;-68
2023/08/21 15:54:32;;;;;;;2.95;1.90;;;;;;;;;;4977400;28;20026;-68
2023/08/21 15:56:58;;;;;;;3.00;1.48;;;;;;;;;;4977494;28;20023;-67
2023/08/21 15:59:24;;;;;;;4.20;1.60;;;;;;;;;;4977221;28;20394;-67
2023/08/21 16:01:51;;;;;;;7.70;1.88;;;;;;;;;;4977058;28;20018;-67
2023/08/21 16:04:18;;;;;;;2.03;1.55;;;;;;;;;;4977194;28;20037;-67
2023/08/21 16:06:45;;;;;;;4.50;1.65;;;;;;;;;;4976864;28;20073;-67
2023/08/21 16:09:11;;;;;;;7.95;1.90;;;;;;;;;;4958167;29;20020;-67
2023/08/21 16:11:37;;;;;;;2.95;1.65;;;;;;;;;;4957647;29;20031;-67
2023/08/21 16:14:07;;;;;;;8.77;1.80;;;;;;;;;;4957877;29;20027;-67
2023/08/21 16:16:34;;;;;;;2.05;1.55;;;;;;;;;;4957376;29;20029;-67
2023/08/21 16:19:00;;;;;;;4.38;1.50;;;;;;;;;;4957930;29;20027;-68
2023/08/21 16:21:27;;;;;;;3.13;1.60;;;;;;;;;;4957700;29;20039;-68
2023/08/21 16:23:53;;;;;;;1.92;1.50;;;;;;;;;;4958110;29;20020;-67
2023/08/21 16:26:20;;;;;;;7.88;1.88;;;;;;;;;;4957446;28;20039;-67
2023/08/21 16:28:46;;;;;;;7.53;1.60;;;;;;;;;;4957557;29;20027;-68
2023/08/21 16:31:16;;;;;;;6.13;1.60;;;;;;;;;;4957104;29;20031;-67
2023/08/21 16:33:43;;;;;;;3.47;2.00;;;;;;;;;;4957402;29;20037;-67
2023/08/21 16:36:10;;;;;;;1.77;1.50;;;;;;;;;;4957500;29;20061;-67
2023/08/21 16:38:36;;;;;;;6.07;1.88;;;;;;;;;;4957235;29;20030;-68
2023/08/21 16:41:02;;;;;;;5.07;1.60;;;;;;;;;;4957421;29;20042;-68
2023/08/21 16:43:28;;;;;;;4.18;1.90;;;;;;;;;;4957312;29;20031;-67
2023/08/21 16:45:55;;;;;;;3.45;1.70;;;;;;;;;;4956245;28;20035;-68
2023/08/21 16:48:21;;;;;;;4.13;1.80;;;;;;;;;;4957267;29;20031;-67
2023/08/21 16:50:48;;;;;;;4.50;1.40;;;;;;;;;;4957024;29;20038;-67
2023/08/21 16:53:15;;;;;;;6.38;1.90;;;;;;;;;;4957252;29;20034;-67
2023/08/21 16:55:41;;;;;;;4.78;1.70;;;;;;;;;;4956831;29;20033;-68
2023/08/21 16:58:07;;;;;;;4.05;1.98;;;;;;;;;;4957149;29;20097;-67
2023/08/21 17:00:35;;;;;;;2.33;1.60;;;;;;;;;;4956847;29;20061;-68
2023/08/21 17:03:01;;;;;;;4.20;1.90;;;;;;;;;;4956809;28;20384;-67
2023/08/21 17:05:27;;;;;;;2.72;1.50;;;;;;;;;;4956741;29;20055;-67
2023/08/21 17:07:54;;;;;;;3.13;1.75;;;;;;;;;;4966330;28;20030;-67
2023/08/21 17:10:20;;;;;;;2.35;1.40;;;;;;;;;;4975919;28;20030;-67
2023/08/21 17:12:46;;;;;;;8.70;1.92;;;;;;;;;;4975727;28;20077;-67
2023/08/21 17:15:14;;;;;;;5.07;1.67;;;;;;;;;;4975619;28;20018;-68
2023/08/21 17:17:41;;;;;;;7.95;1.70;;;;;;;;;;4976137;28;20034;-67
2023/08/21 17:20:09;;;;;;;6.60;1.60;;;;;;;;;;4975535;28;20022;-67
2023/08/21 17:22:35;;;;;;;3.75;1.65;;;;;;;;;;4975742;28;20402;-67
2023/08/21 17:25:02;;;;;;;3.50;1.73;;;;;;;;;;4975905;28;20030;-67
2023/08/21 17:27:28;;;;;;;2.22;1.48;;;;;;;;;;4975745;28;20038;-68
2023/08/21 17:29:54;;;;;;;4.53;1.83;;;;;;;;;;4975883;28;20027;-68
2023/08/21 17:32:21;;;;;;;3.42;1.88;;;;;;;;;;4975618;28;20027;-68
2023/08/21 17:34:47;;;;;;;6.15;1.52;;;;;;;;;;4975468;28;20514;-68
2023/08/21 17:37:15;;;;;;;5.40;1.90;;;;;;;;;;4975882;28;20037;-67
2023/08/21 17:39:41;;;;;;;3.83;2.08;;;;;;;;;;4975488;28;20484;-67
2023/08/21 17:42:07;;;;;;;5.13;1.70;;;;;;;;;;4975465;28;20517;-68
2023/08/21 17:44:34;;;;;;;3.92;1.85;;;;;;;;;;4975025;28;20034;-67
2023/08/21 17:47:00;;;;;;;4.68;1.90;;;;;;;;;;4975051;28;20030;-68
2023/08/21 17:49:27;;;;;;;6.20;1.70;;;;;;;;;;4975248;28;20029;-67
2023/08/21 17:51:54;;;;;;;3.83;2.00;;;;;;;;;;4975345;28;20105;-67
2023/08/21 17:54:20;;;;;;;4.75;2.00;;;;;;;;;;4975256;28;20027;-67
2023/08/21 17:56:46;;;;;;;2.50;1.60;;;;;;;;;;4973266;28;20037;-68
2023/08/21 17:59:13;;;;;;;3.00;1.80;;;;;;;;;;4974725;28;20023;-67
2023/08/21 18:01:39;;;;;;;4.90;1.75;;;;;;;;;;4975093;28;20496;-67
2023/08/21 18:04:05;;;;;;;5.95;1.90;;;;;;;;;;4974964;28;20053;-67
2023/08/21 18:06:32;;;;;;;5.03;1.85;;;;;;;;;;4974834;28;20527;-68
2023/08/21 18:08:58;;;;;;;3.28;2.00;;;;;;;;;;4975035;28;20460;-67
2023/08/21 18:11:24;;;;;;;4.55;1.70;;;;;;;;;;4974638;28;20045;-67
2023/08/21 18:13:50;;;;;;;3.13;1.58;;;;;;;;;;4974282;28;20029;-67
2023/08/21 18:16:20;;;;;;;4.13;1.92;;;;;;;;;;4974607;28;20049;-68
2023/08/21 18:18:46;;;;;;;3.45;2.00;;;;;;;;;;4974767;28;20068;-67
2023/08/21 18:21:13;;;;;;;4.22;2.05;;;;;;;;;;4974963;28;20034;-67
2023/08/21 18:23:39;;;;;;;5.63;1.90;;;;;;;;;;4974760;28;20023;-67
2023/08/21 18:26:06;;;;;;;7.22;2.03;;;;;;;;;;4973331;28;20500;-67
2023/08/21 18:28:32;;;;;;;9.52;1.67;;;;;;;;;;4974002;28;20029;-68
2023/08/21 18:30:59;;;;;;;4.55;1.83;;;;;;;;;;4974495;28;20484;-67
2023/08/21 18:33:26;;;;;;;4.78;1.80;;;;;;;;;;4974503;28;20023;-67
2023/08/21 18:35:52;;;;;;;3.05;1.90;;;;;;;;;;4974541;28;20033;-68
2023/08/21 18:38:22;;;;;;;5.45;1.90;;;;;;;;;;4974353;28;20034;-67
2023/08/21 18:40:48;;;;;;;3.42;1.90;;;;;;;;;;4973802;28;20460;-67
2023/08/21 18:43:15;;;;;;;4.82;1.80;;;;;;;;;;4974429;28;20419;-67
2023/08/21 18:45:41;;;;;;;2.58;1.65;;;;;;;;;;4974207;28;20395;-67
2023/08/21 18:48:07;;;;;;;6.72;1.65;;;;;;;;;;4973980;28;20377;-67
2023/08/21 18:50:37;;;;;;;2.17;1.85;;;;;;;;;;4974433;28;20080;-68
2023/08/21 18:53:04;;;;;;;4.18;1.33;;;;;;;;;;4974094;28;20026;-67
2023/08/21 18:55:31;;;;;;;6.03;1.80;;;;;;;;;;4973788;28;20030;-68
2023/08/21 18:57:58;;;;;;;6.88;1.85;;;;;;;;;;4974160;28;20035;-67
2023/08/21 19:00:25;;;;;;;5.88;1.85;;;;;;;;;;4974076;28;20023;-67
2023/08/21 19:02:52;;;;;;;3.50;1.70;;;;;;;;;;4974183;28;20027;-67
2023/08/21 19:05:18;;;;;;;3.47;1.55;;;;;;;;;;4973764;28;20034;-67
2023/08/21 19:07:44;;;;;;;6.10;1.98;;;;;;;;;;4973847;28;20027;-67
2023/08/21 19:10:11;;;;;;;5.43;1.83;;;;;;;;;;4973495;28;20402;-67
2023/08/21 19:12:37;;;;;;;3.33;1.70;;;;;;;;;;4973924;28;20092;-68
2023/08/21 19:15:03;;;;;;;3.38;1.70;;;;;;;;;;4974000;28;20434;-67
2023/08/21 19:17:30;;;;;;;3.95;1.80;;;;;;;;;;4973788;28;20030;-67
2023/08/21 19:19:56;;;;;;;7.03;1.75;;;;;;;;;;4972738;28;20034;-67
2023/08/21 19:22:23;;;;;;;4.75;2.13;;;;;;;;;;4974386;28;20103;-68
2023/08/21 19:24:50;;;;;;;9.07;1.80;;;;;;;;;;4973388;28;20475;-67
2023/08/21 19:27:16;;;;;;;4.70;1.90;;;;;;;;;;4973716;28;20037;-67
2023/08/21 19:29:44;;;;;;;5.72;1.60;;;;;;;;;;4973878;28;20480;-67
2023/08/21 19:32:10;;;;;;;3.20;1.73;;;;;;;;;;4974079;28;20480;-67
2023/08/21 19:34:37;;;;;;;2.78;1.80;;;;;;;;;;4973923;28;20027;-67
2023/08/21 19:37:04;;;;;;;3.70;1.92;;;;;;;;;;4973473;28;20475;-68
2023/08/21 19:39:30;;;;;;;4.13;1.92;;;;;;;;;;4973300;28;20030;-67
2023/08/21 19:41:57;;;;;;;5.03;2.35;;;;;;;;;;4973533;28;20030;-67
2023/08/21 19:44:23;;;;;;;9.65;2.25;;;;;;;;;;4973675;28;20023;-67
2023/08/21 19:46:50;;;;;;;3.20;1.80;;;;;;;;;;4973370;28;20038;-67
2023/08/21 19:49:16;;;;;;;5.00;1.58;;;;;;;;;;4973746;28;20023;-67
2023/08/21 19:51:42;;;;;;;3.17;1.73;;;;;;;;;;4973305;28;20037;-67
2023/08/21 19:54:09;;;;;;;6.07;1.85;;;;;;;;;;4973132;28;20027;-67
2023/08/21 19:56:35;;;;;;;3.70;1.70;;;;;;;;;;4973741;28;20027;-67
2023/08/21 19:59:02;;;;;;;2.72;1.70;;;;;;;;;;4973480;28;20057;-67
2023/08/21 20:01:29;;;;;;;4.55;1.70;;;;;;;;;;4972046;28;20026;-67
2023/08/21 20:03:55;;;;;;;3.55;1.73;;;;;;;;;;4973479;28;20049;-66
2023/08/21 20:06:21;;;;;;;6.55;2.08;;;;;;;;;;4973176;28;20054;-67
2023/08/21 20:08:47;;;;;;;5.70;2.00;;;;;;;;;;4973048;28;20038;-67
2023/08/21 20:11:14;;;;;;;5.88;1.85;;;;;;;;;;4973585;28;20058;-67
2023/08/21 20:13:40;;;;;;;8.38;1.90;;;;;;;;;;4973000;28;20026;-67
2023/08/21 20:16:09;;;;;;;4.78;1.80;;;;;;;;;;4973272;28;20047;-67
2023/08/21 20:18:38;;;;;;;2.65;1.90;;;;;;;;;;4973733;28;20019;-67
2023/08/21 20:21:05;;;;;;;4.30;2.07;;;;;;;;;;4976732;28;20042;-67
2023/08/21 20:23:34;;;;;;;4.40;2.05;;;;;;;;;;4975526;28;20365;-67
2023/08/21 20:26:00;;;;;;;5.32;2.20;;;;;;;;;;4975436;28;20042;-67
2023/08/21 20:28:27;;;;;;;8.45;2.47;;;;;;;;;;4976707;28;20403;-67
2023/08/21 20:30:59;;;;;;;7.78;2.38;;;;;;;;;;4976951;28;20025;-66
2023/08/21 20:33:26;;;;;;;5.13;1.92;;;;;;;;;;4976454;28;20387;-67
2023/08/21 20:35:52;;;;;;;10.73;2.10;;;;;;;;;;4976841;28;20026;-67
2023/08/21 20:38:18;;;;;;;3.08;1.70;;;;;;;;;;4976351;28;20029;-67
2023/08/21 20:40:45;;;;;;;4.72;2.38;;;;;;;;;;4976395;28;20030;-67
2023/08/21 20:43:12;;;;;;;6.45;2.30;;;;;;;;;;4975301;28;20065;-67